sensor_id;sensor_type;location;lat;lon;timestamp;P1;durP1;ratioP1;P2;durP2;ratioP2
65471;SDS011;52068;50.710;14.492;2023-08-24T00:01:02;2.75;;;2.08;;
65471;SDS011;52068;50.710;14.492;2023-08-24T00:03:28;2.28;;;1.95;;
65471;SDS011;52068;50.710;14.492;2023-08-24T00:05:53;5.07;;;1.80;;
65471;SDS011;52068;50.710;14.492;2023-08-24T00:08:19;2.33;;;1.98;;
65471;SDS011;52068;50.710;14.492;2023-08-24T00:10:44;5.00;;;1.92;;
65471;SDS011;52068;50.710;14.492;2023-08-24T00:13:11;3.80;;;2.00;;
65471;SDS011;52068;50.710;14.492;2023-08-24T00:15:37;4.20;;;2.05;;
65471;SDS011;52068;50.710;14.492;2023-08-24T00:18:04;4.85;;;2.05;;
65471;SDS011;52068;50.710;14.492;2023-08-24T00:20:30;4.90;;;2.08;;
65471;SDS011;52068;50.710;14.492;2023-08-24T00:22:57;2.80;;;2.00;;
65471;SDS011;52068;50.710;14.492;2023-08-24T00:25:23;2.70;;;1.80;;
65471;SDS011;52068;50.710;14.492;2023-08-24T00:27:49;3.53;;;1.95;;
65471;SDS011;52068;50.710;14.492;2023-08-24T00:30:14;3.10;;;1.80;;
65471;SDS011;52068;50.710;14.492;2023-08-24T00:32:40;3.58;;;1.88;;
65471;SDS011;52068;50.710;14.492;2023-08-24T00:35:06;2.17;;;1.85;;
65471;SDS011;52068;50.710;14.492;2023-08-24T00:37:33;4.15;;;2.15;;
65471;SDS011;52068;50.710;14.492;2023-08-24T00:40:02;4.60;;;1.85;;
65471;SDS011;52068;50.710;14.492;2023-08-24T00:42:41;2.05;;;1.70;;
65471;SDS011;52068;50.710;14.492;2023-08-24T00:45:08;4.18;;;1.85;;
65471;SDS011;52068;50.710;14.492;2023-08-24T00:47:36;5.10;;;1.67;;
65471;SDS011;52068;50.710;14.492;2023-08-24T00:50:07;3.78;;;2.00;;
65471;SDS011;52068;50.710;14.492;2023-08-24T00:52:33;3.50;;;1.80;;
65471;SDS011;52068;50.710;14.492;2023-08-24T00:55:01;1.83;;;1.70;;
65471;SDS011;52068;50.710;14.492;2023-08-24T00:57:27;3.83;;;1.67;;
65471;SDS011;52068;50.710;14.492;2023-08-24T00:59:53;3.55;;;1.55;;
65471;SDS011;52068;50.710;14.492;2023-08-24T01:02:19;1.88;;;1.52;;
65471;SDS011;52068;50.710;14.492;2023-08-24T01:04:46;4.88;;;1.80;;
65471;SDS011;52068;50.710;14.492;2023-08-24T01:07:11;10.15;;;1.90;;
65471;SDS011;52068;50.710;14.492;2023-08-24T01:09:37;4.57;;;1.73;;
65471;SDS011;52068;50.710;14.492;2023-08-24T01:15:09;6.55;;;1.75;;
65471;SDS011;52068;50.710;14.492;2023-08-24T01:17:37;2.22;;;1.58;;
65471;SDS011;52068;50.710;14.492;2023-08-24T01:20:04;3.50;;;1.80;;
65471;SDS011;52068;50.710;14.492;2023-08-24T01:22:37;2.65;;;1.83;;
65471;SDS011;52068;50.710;14.492;2023-08-24T01:25:16;2.42;;;1.70;;
65471;SDS011;52068;50.710;14.492;2023-08-24T01:27:45;2.67;;;1.60;;
65471;SDS011;52068;50.710;14.492;2023-08-24T01:30:14;1.85;;;1.55;;
65471;SDS011;52068;50.710;14.492;2023-08-24T01:32:40;1.88;;;1.60;;
65471;SDS011;52068;50.710;14.492;2023-08-24T01:35:07;2.90;;;1.70;;
65471;SDS011;52068;50.710;14.492;2023-08-24T01:37:34;2.95;;;1.50;;
65471;SDS011;52068;50.710;14.492;2023-08-24T01:40:12;2.60;;;1.55;;
65471;SDS011;52068;50.710;14.492;2023-08-24T01:42:48;2.10;;;1.50;;
65471;SDS011;52068;50.710;14.492;2023-08-24T01:45:17;2.72;;;1.67;;
65471;SDS011;52068;50.710;14.492;2023-08-24T01:47:44;2.38;;;1.60;;
65471;SDS011;52068;50.710;14.492;2023-08-24T01:50:11;1.88;;;1.63;;
65471;SDS011;52068;50.710;14.492;2023-08-24T01:52:36;2.47;;;1.65;;
65471;SDS011;52068;50.710;14.492;2023-08-24T01:55:02;2.10;;;1.80;;
65471;SDS011;52068;50.710;14.492;2023-08-24T01:57:28;1.73;;;1.60;;
65471;SDS011;52068;50.710;14.492;2023-08-24T01:59:53;2.72;;;1.80;;
65471;SDS011;52068;50.710;14.492;2023-08-24T02:02:20;2.88;;;1.70;;
65471;SDS011;52068;50.710;14.492;2023-08-24T02:04:45;8.00;;;1.85;;
65471;SDS011;52068;50.710;14.492;2023-08-24T02:07:11;3.83;;;1.55;;
65471;SDS011;52068;50.710;14.492;2023-08-24T02:09:36;3.33;;;1.50;;
65471;SDS011;52068;50.710;14.492;2023-08-24T02:12:02;3.67;;;1.85;;
65471;SDS011;52068;50.710;14.492;2023-08-24T02:14:27;2.28;;;1.60;;
65471;SDS011;52068;50.710;14.492;2023-08-24T02:16:53;5.57;;;1.35;;
65471;SDS011;52068;50.710;14.492;2023-08-24T02:19:18;1.88;;;1.50;;
65471;SDS011;52068;50.710;14.492;2023-08-24T02:21:43;5.70;;;1.50;;
65471;SDS011;52068;50.710;14.492;2023-08-24T02:24:09;4.15;;;1.70;;
65471;SDS011;52068;50.710;14.492;2023-08-24T02:26:34;6.15;;;1.40;;
65471;SDS011;52068;50.710;14.492;2023-08-24T02:29:00;2.72;;;1.58;;
65471;SDS011;52068;50.710;14.492;2023-08-24T02:31:25;2.45;;;1.40;;
65471;SDS011;52068;50.710;14.492;2023-08-24T02:33:50;3.03;;;1.50;;
65471;SDS011;52068;50.710;14.492;2023-08-24T02:36:16;6.70;;;1.63;;
65471;SDS011;52068;50.710;14.492;2023-08-24T02:38:42;2.35;;;1.55;;
65471;SDS011;52068;50.710;14.492;2023-08-24T02:41:07;3.42;;;1.65;;
65471;SDS011;52068;50.710;14.492;2023-08-24T02:43:33;1.65;;;1.50;;
65471;SDS011;52068;50.710;14.492;2023-08-24T02:46:02;2.25;;;1.50;;
65471;SDS011;52068;50.710;14.492;2023-08-24T02:48:29;1.65;;;1.35;;
65471;SDS011;52068;50.710;14.492;2023-08-24T02:50:58;1.58;;;1.45;;
65471;SDS011;52068;50.710;14.492;2023-08-24T02:53:25;4.50;;;1.30;;
65471;SDS011;52068;50.710;14.492;2023-08-24T02:55:51;1.92;;;1.75;;
65471;SDS011;52068;50.710;14.492;2023-08-24T02:58:16;1.50;;;1.40;;
65471;SDS011;52068;50.710;14.492;2023-08-24T03:00:42;1.40;;;1.30;;
65471;SDS011;52068;50.710;14.492;2023-08-24T03:03:07;4.93;;;1.50;;
65471;SDS011;52068;50.710;14.492;2023-08-24T03:05:32;6.13;;;1.52;;
65471;SDS011;52068;50.710;14.492;2023-08-24T03:07:58;2.65;;;1.15;;
65471;SDS011;52068;50.710;14.492;2023-08-24T03:10:24;1.67;;;1.40;;
65471;SDS011;52068;50.710;14.492;2023-08-24T03:12:50;2.08;;;1.50;;
65471;SDS011;52068;50.710;14.492;2023-08-24T03:15:15;2.88;;;1.63;;
65471;SDS011;52068;50.710;14.492;2023-08-24T03:17:41;7.22;;;1.63;;
65471;SDS011;52068;50.710;14.492;2023-08-24T03:20:06;3.92;;;1.40;;
65471;SDS011;52068;50.710;14.492;2023-08-24T03:22:33;10.60;;;1.40;;
65471;SDS011;52068;50.710;14.492;2023-08-24T03:24:58;2.28;;;1.50;;
65471;SDS011;52068;50.710;14.492;2023-08-24T03:27:23;2.65;;;1.40;;
65471;SDS011;52068;50.710;14.492;2023-08-24T03:29:49;2.55;;;1.60;;
65471;SDS011;52068;50.710;14.492;2023-08-24T03:32:16;4.15;;;1.48;;
65471;SDS011;52068;50.710;14.492;2023-08-24T03:34:42;3.25;;;1.30;;
65471;SDS011;52068;50.710;14.492;2023-08-24T03:37:07;1.35;;;1.25;;
65471;SDS011;52068;50.710;14.492;2023-08-24T03:39:33;2.53;;;1.38;;
65471;SDS011;52068;50.710;14.492;2023-08-24T03:41:58;1.13;;;1.13;;
65471;SDS011;52068;50.710;14.492;2023-08-24T03:44:23;1.52;;;1.35;;
65471;SDS011;52068;50.710;14.492;2023-08-24T03:46:49;2.78;;;1.60;;
65471;SDS011;52068;50.710;14.492;2023-08-24T03:49:14;1.40;;;1.30;;
65471;SDS011;52068;50.710;14.492;2023-08-24T03:51:40;10.45;;;1.67;;
65471;SDS011;52068;50.710;14.492;2023-08-24T03:54:05;1.75;;;1.33;;
65471;SDS011;52068;50.710;14.492;2023-08-24T03:56:31;2.38;;;1.58;;
65471;SDS011;52068;50.710;14.492;2023-08-24T03:58:57;4.00;;;1.55;;
65471;SDS011;52068;50.710;14.492;2023-08-24T04:01:22;1.60;;;1.42;;
65471;SDS011;52068;50.710;14.492;2023-08-24T04:03:48;1.38;;;1.25;;
65471;SDS011;52068;50.710;14.492;2023-08-24T04:06:13;1.83;;;1.10;;
65471;SDS011;52068;50.710;14.492;2023-08-24T04:08:38;1.88;;;1.48;;
65471;SDS011;52068;50.710;14.492;2023-08-24T04:11:04;1.42;;;1.33;;
65471;SDS011;52068;50.710;14.492;2023-08-24T04:13:29;3.85;;;1.50;;
65471;SDS011;52068;50.710;14.492;2023-08-24T04:15:55;2.55;;;1.50;;
65471;SDS011;52068;50.710;14.492;2023-08-24T04:18:20;1.98;;;1.38;;
65471;SDS011;52068;50.710;14.492;2023-08-24T04:20:45;2.78;;;1.33;;
65471;SDS011;52068;50.710;14.492;2023-08-24T04:23:12;1.60;;;1.15;;
65471;SDS011;52068;50.710;14.492;2023-08-24T04:25:39;2.33;;;1.15;;
65471;SDS011;52068;50.710;14.492;2023-08-24T04:28:05;4.30;;;1.40;;
65471;SDS011;52068;50.710;14.492;2023-08-24T04:30:30;1.42;;;1.02;;
65471;SDS011;52068;50.710;14.492;2023-08-24T04:32:55;1.30;;;1.13;;
65471;SDS011;52068;50.710;14.492;2023-08-24T04:35:21;1.05;;;1.05;;
65471;SDS011;52068;50.710;14.492;2023-08-24T04:37:50;3.05;;;1.40;;
65471;SDS011;52068;50.710;14.492;2023-08-24T04:40:15;5.30;;;1.40;;
65471;SDS011;52068;50.710;14.492;2023-08-24T04:42:40;2.55;;;1.33;;
65471;SDS011;52068;50.710;14.492;2023-08-24T04:45:06;1.50;;;1.30;;
65471;SDS011;52068;50.710;14.492;2023-08-24T04:47:32;3.38;;;1.20;;
65471;SDS011;52068;50.710;14.492;2023-08-24T04:49:57;2.40;;;1.38;;
65471;SDS011;52068;50.710;14.492;2023-08-24T04:52:23;3.00;;;1.80;;
65471;SDS011;52068;50.710;14.492;2023-08-24T04:54:48;3.20;;;1.58;;
65471;SDS011;52068;50.710;14.492;2023-08-24T04:57:14;2.95;;;1.35;;
65471;SDS011;52068;50.710;14.492;2023-08-24T04:59:39;2.75;;;1.27;;
65471;SDS011;52068;50.710;14.492;2023-08-24T05:02:04;1.52;;;1.23;;
65471;SDS011;52068;50.710;14.492;2023-08-24T05:04:30;2.55;;;1.48;;
65471;SDS011;52068;50.710;14.492;2023-08-24T05:06:55;4.07;;;1.40;;
65471;SDS011;52068;50.710;14.492;2023-08-24T05:09:20;6.38;;;1.65;;
65471;SDS011;52068;50.710;14.492;2023-08-24T05:11:47;1.42;;;1.33;;
65471;SDS011;52068;50.710;14.492;2023-08-24T05:14:13;2.65;;;1.48;;
65471;SDS011;52068;50.710;14.492;2023-08-24T05:16:39;3.80;;;1.33;;
65471;SDS011;52068;50.710;14.492;2023-08-24T05:19:04;2.00;;;1.50;;
65471;SDS011;52068;50.710;14.492;2023-08-24T05:21:29;1.40;;;1.23;;
65471;SDS011;52068;50.710;14.492;2023-08-24T05:23:55;1.58;;;1.17;;
65471;SDS011;52068;50.710;14.492;2023-08-24T05:26:20;2.88;;;1.70;;
65471;SDS011;52068;50.710;14.492;2023-08-24T05:28:49;4.35;;;1.55;;
65471;SDS011;52068;50.710;14.492;2023-08-24T05:31:15;1.92;;;1.30;;
65471;SDS011;52068;50.710;14.492;2023-08-24T05:33:41;3.65;;;1.40;;
65471;SDS011;52068;50.710;14.492;2023-08-24T05:36:06;3.17;;;1.40;;
65471;SDS011;52068;50.710;14.492;2023-08-24T05:38:31;4.18;;;1.48;;
65471;SDS011;52068;50.710;14.492;2023-08-24T05:40:57;3.20;;;1.50;;
65471;SDS011;52068;50.710;14.492;2023-08-24T05:43:22;3.17;;;1.60;;
65471;SDS011;52068;50.710;14.492;2023-08-24T05:45:48;3.45;;;1.63;;
65471;SDS011;52068;50.710;14.492;2023-08-24T05:48:13;2.95;;;1.67;;
65471;SDS011;52068;50.710;14.492;2023-08-24T05:50:43;10.68;;;1.88;;
65471;SDS011;52068;50.710;14.492;2023-08-24T05:53:09;6.10;;;1.70;;
65471;SDS011;52068;50.710;14.492;2023-08-24T05:55:35;3.20;;;1.63;;
65471;SDS011;52068;50.710;14.492;2023-08-24T05:58:00;2.28;;;1.40;;
65471;SDS011;52068;50.710;14.492;2023-08-24T06:00:25;2.85;;;1.50;;
65471;SDS011;52068;50.710;14.492;2023-08-24T06:02:51;6.55;;;1.50;;
65471;SDS011;52068;50.710;14.492;2023-08-24T06:05:16;4.28;;;1.52;;
65471;SDS011;52068;50.710;14.492;2023-08-24T06:07:43;4.60;;;1.55;;
65471;SDS011;52068;50.710;14.492;2023-08-24T06:10:08;2.55;;;1.60;;
65471;SDS011;52068;50.710;14.492;2023-08-24T06:12:34;4.93;;;1.55;;
65471;SDS011;52068;50.710;14.492;2023-08-24T06:14:59;1.60;;;1.50;;
65471;SDS011;52068;50.710;14.492;2023-08-24T06:17:27;4.78;;;1.75;;
65471;SDS011;52068;50.710;14.492;2023-08-24T06:19:53;6.72;;;1.63;;
65471;SDS011;52068;50.710;14.492;2023-08-24T06:22:18;3.55;;;1.80;;
65471;SDS011;52068;50.710;14.492;2023-08-24T06:24:43;3.28;;;1.70;;
65471;SDS011;52068;50.710;14.492;2023-08-24T06:27:09;1.67;;;1.35;;
65471;SDS011;52068;50.710;14.492;2023-08-24T06:29:34;3.60;;;1.70;;
65471;SDS011;52068;50.710;14.492;2023-08-24T06:31:59;2.58;;;1.80;;
65471;SDS011;52068;50.710;14.492;2023-08-24T06:34:25;2.35;;;1.50;;
65471;SDS011;52068;50.710;14.492;2023-08-24T06:36:50;4.28;;;1.70;;
65471;SDS011;52068;50.710;14.492;2023-08-24T06:39:16;5.47;;;1.83;;
65471;SDS011;52068;50.710;14.492;2023-08-24T06:41:41;3.25;;;1.75;;
65471;SDS011;52068;50.710;14.492;2023-08-24T06:44:07;3.22;;;1.90;;
65471;SDS011;52068;50.710;14.492;2023-08-24T06:46:32;4.28;;;1.98;;
65471;SDS011;52068;50.710;14.492;2023-08-24T06:48:58;3.17;;;1.80;;
65471;SDS011;52068;50.710;14.492;2023-08-24T06:51:24;2.67;;;1.98;;
65471;SDS011;52068;50.710;14.492;2023-08-24T06:53:50;4.13;;;2.25;;
65471;SDS011;52068;50.710;14.492;2023-08-24T06:56:15;4.43;;;1.90;;
65471;SDS011;52068;50.710;14.492;2023-08-24T06:58:42;3.28;;;2.00;;
65471;SDS011;52068;50.710;14.492;2023-08-24T07:01:08;2.65;;;1.98;;
65471;SDS011;52068;50.710;14.492;2023-08-24T07:03:33;2.25;;;2.05;;
65471;SDS011;52068;50.710;14.492;2023-08-24T07:05:59;4.55;;;2.20;;
65471;SDS011;52068;50.710;14.492;2023-08-24T07:08:24;4.47;;;2.10;;
65471;SDS011;52068;50.710;14.492;2023-08-24T07:10:50;2.45;;;1.80;;
65471;SDS011;52068;50.710;14.492;2023-08-24T07:13:15;1.95;;;1.70;;
65471;SDS011;52068;50.710;14.492;2023-08-24T07:15:40;4.03;;;2.25;;
65471;SDS011;52068;50.710;14.492;2023-08-24T07:18:06;2.55;;;1.92;;
65471;SDS011;52068;50.710;14.492;2023-08-24T07:20:33;4.28;;;1.98;;
65471;SDS011;52068;50.710;14.492;2023-08-24T07:22:59;4.80;;;1.77;;
65471;SDS011;52068;50.710;14.492;2023-08-24T07:25:24;3.03;;;1.92;;
65471;SDS011;52068;50.710;14.492;2023-08-24T07:27:50;2.00;;;1.60;;
65471;SDS011;52068;50.710;14.492;2023-08-24T07:30:15;5.90;;;1.77;;
65471;SDS011;52068;50.710;14.492;2023-08-24T07:32:41;5.05;;;1.60;;
65471;SDS011;52068;50.710;14.492;2023-08-24T07:35:07;3.05;;;2.10;;
65471;SDS011;52068;50.710;14.492;2023-08-24T07:37:32;1.80;;;1.70;;
65471;SDS011;52068;50.710;14.492;2023-08-24T07:39:58;2.72;;;1.88;;
65471;SDS011;52068;50.710;14.492;2023-08-24T07:42:23;3.65;;;2.08;;
65471;SDS011;52068;50.710;14.492;2023-08-24T07:44:49;2.95;;;1.80;;
65471;SDS011;52068;50.710;14.492;2023-08-24T07:47:15;2.13;;;1.80;;
65471;SDS011;52068;50.710;14.492;2023-08-24T07:49:41;2.20;;;1.83;;
65471;SDS011;52068;50.710;14.492;2023-08-24T07:52:09;2.92;;;1.85;;
65471;SDS011;52068;50.710;14.492;2023-08-24T07:54:36;4.07;;;1.80;;
65471;SDS011;52068;50.710;14.492;2023-08-24T07:57:01;2.75;;;1.75;;
65471;SDS011;52068;50.710;14.492;2023-08-24T07:59:27;1.75;;;1.60;;
65471;SDS011;52068;50.710;14.492;2023-08-24T08:01:52;3.05;;;2.00;;
65471;SDS011;52068;50.710;14.492;2023-08-24T08:04:17;2.60;;;1.70;;
65471;SDS011;52068;50.710;14.492;2023-08-24T08:06:43;3.95;;;2.20;;
65471;SDS011;52068;50.710;14.492;2023-08-24T08:09:08;2.22;;;1.83;;
65471;SDS011;52068;50.710;14.492;2023-08-24T08:11:34;4.15;;;1.83;;
65471;SDS011;52068;50.710;14.492;2023-08-24T08:13:59;2.20;;;1.80;;
65471;SDS011;52068;50.710;14.492;2023-08-24T08:16:25;3.05;;;1.90;;
65471;SDS011;52068;50.710;14.492;2023-08-24T08:18:50;2.38;;;1.77;;
65471;SDS011;52068;50.710;14.492;2023-08-24T08:21:16;2.83;;;1.85;;
65471;SDS011;52068;50.710;14.492;2023-08-24T08:23:43;2.78;;;1.70;;
65471;SDS011;52068;50.710;14.492;2023-08-24T08:26:10;2.10;;;1.83;;
65471;SDS011;52068;50.710;14.492;2023-08-24T08:28:36;3.45;;;1.73;;
65471;SDS011;52068;50.710;14.492;2023-08-24T08:31:01;2.42;;;1.80;;
65471;SDS011;52068;50.710;14.492;2023-08-24T08:33:28;2.92;;;1.77;;
65471;SDS011;52068;50.710;14.492;2023-08-24T08:35:53;3.20;;;1.90;;
65471;SDS011;52068;50.710;14.492;2023-08-24T08:38:19;7.47;;;1.90;;
65471;SDS011;52068;50.710;14.492;2023-08-24T08:40:47;3.13;;;1.75;;
65471;SDS011;52068;50.710;14.492;2023-08-24T08:43:15;5.13;;;2.03;;
65471;SDS011;52068;50.710;14.492;2023-08-24T08:45:40;5.03;;;1.77;;
65471;SDS011;52068;50.710;14.492;2023-08-24T08:48:06;2.70;;;1.92;;
65471;SDS011;52068;50.710;14.492;2023-08-24T08:50:32;4.40;;;2.10;;
65471;SDS011;52068;50.710;14.492;2023-08-24T08:53:00;5.90;;;2.00;;
65471;SDS011;52068;50.710;14.492;2023-08-24T08:55:26;4.35;;;1.77;;
65471;SDS011;52068;50.710;14.492;2023-08-24T08:57:53;6.00;;;2.00;;
65471;SDS011;52068;50.710;14.492;2023-08-24T09:00:23;4.65;;;1.75;;
65471;SDS011;52068;50.710;14.492;2023-08-24T09:02:48;6.22;;;1.90;;
65471;SDS011;52068;50.710;14.492;2023-08-24T09:05:17;3.40;;;2.10;;
65471;SDS011;52068;50.710;14.492;2023-08-24T09:07:43;5.35;;;2.00;;
65471;SDS011;52068;50.710;14.492;2023-08-24T09:10:09;10.85;;;2.03;;
65471;SDS011;52068;50.710;14.492;2023-08-24T09:12:35;2.35;;;1.70;;
65471;SDS011;52068;50.710;14.492;2023-08-24T09:15:06;5.40;;;1.80;;
65471;SDS011;52068;50.710;14.492;2023-08-24T09:17:32;4.13;;;1.52;;
65471;SDS011;52068;50.710;14.492;2023-08-24T09:19:59;6.13;;;2.22;;
65471;SDS011;52068;50.710;14.492;2023-08-24T09:22:25;3.55;;;2.03;;
65471;SDS011;52068;50.710;14.492;2023-08-24T09:24:51;4.93;;;2.53;;
65471;SDS011;52068;50.710;14.492;2023-08-24T09:27:18;4.15;;;1.95;;
65471;SDS011;52068;50.710;14.492;2023-08-24T09:29:51;4.93;;;2.03;;
65471;SDS011;52068;50.710;14.492;2023-08-24T09:35:09;4.50;;;2.05;;
65471;SDS011;52068;50.710;14.492;2023-08-24T09:37:36;6.43;;;2.00;;
65471;SDS011;52068;50.710;14.492;2023-08-24T09:40:02;2.00;;;1.65;;
65471;SDS011;52068;50.710;14.492;2023-08-24T09:42:33;4.20;;;1.58;;
65471;SDS011;52068;50.710;14.492;2023-08-24T09:45:03;2.42;;;1.75;;
65471;SDS011;52068;50.710;14.492;2023-08-24T09:47:31;2.45;;;1.80;;
65471;SDS011;52068;50.710;14.492;2023-08-24T09:49:57;5.97;;;2.05;;
65471;SDS011;52068;50.710;14.492;2023-08-24T09:52:22;3.95;;;1.65;;
65471;SDS011;52068;50.710;14.492;2023-08-24T09:54:51;1.85;;;1.65;;
65471;SDS011;52068;50.710;14.492;2023-08-24T09:57:17;4.35;;;1.95;;
65471;SDS011;52068;50.710;14.492;2023-08-24T09:59:45;2.17;;;1.70;;
65471;SDS011;52068;50.710;14.492;2023-08-24T10:02:17;5.03;;;2.03;;
65471;SDS011;52068;50.710;14.492;2023-08-24T10:04:45;2.55;;;1.75;;
65471;SDS011;52068;50.710;14.492;2023-08-24T10:07:13;2.83;;;1.90;;
65471;SDS011;52068;50.710;14.492;2023-08-24T10:09:53;2.75;;;1.58;;
65471;SDS011;52068;50.710;14.492;2023-08-24T10:12:30;5.68;;;1.73;;
65471;SDS011;52068;50.710;14.492;2023-08-24T10:15:01;2.67;;;1.73;;
65471;SDS011;52068;50.710;14.492;2023-08-24T10:17:32;3.13;;;2.03;;
65471;SDS011;52068;50.710;14.492;2023-08-24T10:20:00;2.58;;;1.80;;
65471;SDS011;52068;50.710;14.492;2023-08-24T10:22:28;5.32;;;1.85;;
65471;SDS011;52068;50.710;14.492;2023-08-24T10:24:54;2.60;;;1.65;;
65471;SDS011;52068;50.710;14.492;2023-08-24T10:27:20;2.85;;;1.80;;
65471;SDS011;52068;50.710;14.492;2023-08-24T10:29:47;3.85;;;1.77;;
65471;SDS011;52068;50.710;14.492;2023-08-24T10:32:13;2.58;;;1.77;;
65471;SDS011;52068;50.710;14.492;2023-08-24T10:34:38;2.65;;;1.88;;
65471;SDS011;52068;50.710;14.492;2023-08-24T10:37:07;3.42;;;1.90;;
65471;SDS011;52068;50.710;14.492;2023-08-24T10:39:34;2.97;;;1.85;;
65471;SDS011;52068;50.710;14.492;2023-08-24T10:42:03;3.67;;;1.88;;
65471;SDS011;52068;50.710;14.492;2023-08-24T10:44:35;4.85;;;1.60;;
65471;SDS011;52068;50.710;14.492;2023-08-24T10:47:11;5.47;;;1.83;;
65471;SDS011;52068;50.710;14.492;2023-08-24T10:49:41;3.00;;;2.00;;
65471;SDS011;52068;50.710;14.492;2023-08-24T10:55:26;2.72;;;1.90;;
65471;SDS011;52068;50.710;14.492;2023-08-24T10:58:01;2.10;;;1.70;;
65471;SDS011;52068;50.710;14.492;2023-08-24T11:00:28;3.20;;;2.13;;
65471;SDS011;52068;50.710;14.492;2023-08-24T11:02:55;2.05;;;1.77;;
65471;SDS011;52068;50.710;14.492;2023-08-24T11:05:24;5.53;;;2.00;;
65471;SDS011;52068;50.710;14.492;2023-08-24T11:07:56;2.22;;;1.83;;
65471;SDS011;52068;50.710;14.492;2023-08-24T11:10:23;1.98;;;1.85;;
65471;SDS011;52068;50.710;14.492;2023-08-24T11:13:23;2.28;;;1.70;;
65471;SDS011;52068;50.710;14.492;2023-08-24T11:15:44;4.53;;;1.70;;
65471;SDS011;52068;50.710;14.492;2023-08-24T11:20:56;2.58;;;1.77;;
65471;SDS011;52068;50.710;14.492;2023-08-24T11:23:29;2.05;;;1.55;;
65471;SDS011;52068;50.710;14.492;2023-08-24T11:25:55;2.58;;;1.80;;
65471;SDS011;52068;50.710;14.492;2023-08-24T11:28:26;4.93;;;1.98;;
65471;SDS011;52068;50.710;14.492;2023-08-24T11:30:53;3.60;;;1.60;;
65471;SDS011;52068;50.710;14.492;2023-08-24T11:33:32;1.95;;;1.80;;
65471;SDS011;52068;50.710;14.492;2023-08-24T11:35:59;5.95;;;1.92;;
65471;SDS011;52068;50.710;14.492;2023-08-24T11:38:42;2.42;;;1.80;;
65471;SDS011;52068;50.710;14.492;2023-08-24T11:41:14;2.72;;;1.83;;
65471;SDS011;52068;50.710;14.492;2023-08-24T11:43:42;2.83;;;1.85;;
65471;SDS011;52068;50.710;14.492;2023-08-24T11:46:08;3.22;;;1.95;;
65471;SDS011;52068;50.710;14.492;2023-08-24T11:48:33;3.30;;;1.88;;
65471;SDS011;52068;50.710;14.492;2023-08-24T11:50:59;2.00;;;1.65;;
65471;SDS011;52068;50.710;14.492;2023-08-24T11:53:24;3.25;;;1.77;;
65471;SDS011;52068;50.710;14.492;2023-08-24T11:55:54;4.50;;;1.98;;
65471;SDS011;52068;50.710;14.492;2023-08-24T11:58:20;2.83;;;2.00;;
65471;SDS011;52068;50.710;14.492;2023-08-24T12:00:45;4.22;;;1.70;;
65471;SDS011;52068;50.710;14.492;2023-08-24T12:03:12;2.65;;;1.73;;
65471;SDS011;52068;50.710;14.492;2023-08-24T12:05:38;2.92;;;2.40;;
65471;SDS011;52068;50.710;14.492;2023-08-24T12:08:03;1.70;;;1.50;;
65471;SDS011;52068;50.710;14.492;2023-08-24T12:10:31;5.18;;;2.05;;
65471;SDS011;52068;50.710;14.492;2023-08-24T12:13:03;3.63;;;1.90;;
65471;SDS011;52068;50.710;14.492;2023-08-24T12:15:30;2.97;;;1.75;;
65471;SDS011;52068;50.710;14.492;2023-08-24T12:17:57;2.35;;;1.90;;
65471;SDS011;52068;50.710;14.492;2023-08-24T12:20:22;3.47;;;2.10;;
65471;SDS011;52068;50.710;14.492;2023-08-24T12:22:51;3.88;;;2.17;;
65471;SDS011;52068;50.710;14.492;2023-08-24T12:25:18;3.03;;;2.10;;
65471;SDS011;52068;50.710;14.492;2023-08-24T12:27:46;4.40;;;2.13;;
65471;SDS011;52068;50.710;14.492;2023-08-24T12:30:12;2.78;;;2.10;;
65471;SDS011;52068;50.710;14.492;2023-08-24T12:32:44;2.35;;;1.90;;
65471;SDS011;52068;50.710;14.492;2023-08-24T12:35:11;2.35;;;1.92;;
65471;SDS011;52068;50.710;14.492;2023-08-24T12:37:42;4.68;;;2.03;;
65471;SDS011;52068;50.710;14.492;2023-08-24T12:40:08;3.88;;;1.83;;
65471;SDS011;52068;50.710;14.492;2023-08-24T12:42:34;3.80;;;1.92;;
65471;SDS011;52068;50.710;14.492;2023-08-24T12:44:59;4.38;;;1.90;;
65471;SDS011;52068;50.710;14.492;2023-08-24T12:47:25;3.70;;;2.10;;
65471;SDS011;52068;50.710;14.492;2023-08-24T12:49:51;7.00;;;2.05;;
65471;SDS011;52068;50.710;14.492;2023-08-24T12:52:17;2.55;;;1.90;;
65471;SDS011;52068;50.710;14.492;2023-08-24T12:54:43;2.65;;;1.90;;
65471;SDS011;52068;50.710;14.492;2023-08-24T12:57:08;2.88;;;2.08;;
65471;SDS011;52068;50.710;14.492;2023-08-24T12:59:34;3.15;;;2.03;;
65471;SDS011;52068;50.710;14.492;2023-08-24T13:01:59;3.53;;;2.10;;
65471;SDS011;52068;50.710;14.492;2023-08-24T13:04:24;3.53;;;2.15;;
65471;SDS011;52068;50.710;14.492;2023-08-24T13:06:50;4.93;;;2.10;;
65471;SDS011;52068;50.710;14.492;2023-08-24T13:09:15;2.00;;;1.70;;
65471;SDS011;52068;50.710;14.492;2023-08-24T13:11:41;2.60;;;2.20;;
65471;SDS011;52068;50.710;14.492;2023-08-24T13:14:07;3.30;;;2.00;;
65471;SDS011;52068;50.710;14.492;2023-08-24T13:16:32;2.58;;;1.98;;
65471;SDS011;52068;50.710;14.492;2023-08-24T13:18:57;2.55;;;2.00;;
65471;SDS011;52068;50.710;14.492;2023-08-24T13:21:24;8.27;;;1.90;;
65471;SDS011;52068;50.710;14.492;2023-08-24T13:23:50;4.78;;;1.90;;
65471;SDS011;52068;50.710;14.492;2023-08-24T13:26:16;4.60;;;2.00;;
65471;SDS011;52068;50.710;14.492;2023-08-24T13:28:44;2.20;;;2.00;;
65471;SDS011;52068;50.710;14.492;2023-08-24T13:31:09;11.82;;;2.10;;
65471;SDS011;52068;50.710;14.492;2023-08-24T13:33:35;5.03;;;2.13;;
65471;SDS011;52068;50.710;14.492;2023-08-24T13:36:00;3.95;;;2.35;;
65471;SDS011;52068;50.710;14.492;2023-08-24T13:38:27;5.22;;;1.98;;
65471;SDS011;52068;50.710;14.492;2023-08-24T13:40:52;3.90;;;2.08;;
65471;SDS011;52068;50.710;14.492;2023-08-24T13:43:17;2.85;;;2.10;;
65471;SDS011;52068;50.710;14.492;2023-08-24T13:45:44;4.75;;;2.40;;
65471;SDS011;52068;50.710;14.492;2023-08-24T13:48:10;5.90;;;2.10;;
65471;SDS011;52068;50.710;14.492;2023-08-24T13:50:35;2.97;;;2.25;;
65471;SDS011;52068;50.710;14.492;2023-08-24T13:53:01;4.25;;;2.25;;
65471;SDS011;52068;50.710;14.492;2023-08-24T13:55:26;4.43;;;2.13;;
65471;SDS011;52068;50.710;14.492;2023-08-24T13:57:52;3.85;;;1.95;;
65471;SDS011;52068;50.710;14.492;2023-08-24T14:00:17;6.72;;;2.03;;
65471;SDS011;52068;50.710;14.492;2023-08-24T14:02:43;4.97;;;2.20;;
65471;SDS011;52068;50.710;14.492;2023-08-24T14:05:09;3.17;;;1.98;;
65471;SDS011;52068;50.710;14.492;2023-08-24T14:07:36;3.50;;;2.08;;
65471;SDS011;52068;50.710;14.492;2023-08-24T14:10:02;3.40;;;2.20;;
65471;SDS011;52068;50.710;14.492;2023-08-24T14:12:28;2.78;;;1.90;;
65471;SDS011;52068;50.710;14.492;2023-08-24T14:14:54;2.05;;;1.88;;
65471;SDS011;52068;50.710;14.492;2023-08-24T14:17:20;3.45;;;1.77;;
65471;SDS011;52068;50.710;14.492;2023-08-24T14:19:45;2.97;;;1.90;;
65471;SDS011;52068;50.710;14.492;2023-08-24T14:22:10;3.28;;;2.20;;
65471;SDS011;52068;50.710;14.492;2023-08-24T14:24:36;2.60;;;1.80;;
65471;SDS011;52068;50.710;14.492;2023-08-24T14:27:01;3.75;;;2.10;;
65471;SDS011;52068;50.710;14.492;2023-08-24T14:29:26;3.05;;;1.90;;
65471;SDS011;52068;50.710;14.492;2023-08-24T14:31:52;2.75;;;2.05;;
65471;SDS011;52068;50.710;14.492;2023-08-24T14:34:17;4.43;;;2.30;;
65471;SDS011;52068;50.710;14.492;2023-08-24T14:36:43;3.35;;;1.98;;
65471;SDS011;52068;50.710;14.492;2023-08-24T14:39:08;4.57;;;2.40;;
65471;SDS011;52068;50.710;14.492;2023-08-24T14:41:34;2.88;;;2.00;;